Time;durP1;ratioP1;P1;durP2;ratioP2;P2;SDS_P1;SDS_P2;PMS_P1;PMS_P2;Temp;Humidity;BMP_temperature;BMP_pressure;BME280_temperature;BME280_humidity;BME280_pressure;Samples;Min_cycle;Max_cycle;Signal;HPM_P1;HPM_P2
2021/05/04 00:00:43;;;;;;;6.67;3.40;;;;;;;6.29;57.42;95947.81;5058329;28;20055;-78
2021/05/04 00:03:08;;;;;;;7.63;4.07;;;;;;;6.33;57.08;95943.13;5062448;28;20127;-78
2021/05/04 00:05:34;;;;;;;8.70;4.27;;;;;;;6.37;56.90;95934.91;5050866;28;20654;-79
2021/05/04 00:08:00;;;;;;;6.67;3.60;;;;;;;6.45;56.16;95933.38;5069409;28;20039;-79
2021/05/04 00:10:25;;;;;;;7.13;4.07;;;;;;;6.47;55.96;95928.81;5065003;28;20024;-78
2021/05/04 00:12:51;;;;;;;7.23;3.90;;;;;;;6.46;56.13;95916.72;5055178;28;20116;-78
2021/05/04 00:15:17;;;;;;;6.70;3.27;;;;;;;6.43;56.49;95919.59;5052611;28;20024;-78
2021/05/04 00:17:43;;;;;;;6.90;3.70;;;;;;;6.52;56.29;95918.78;5054392;28;20513;-77
2021/05/04 00:20:09;;;;;;;6.80;3.73;;;;;;;6.38;56.68;95915.63;5062792;28;20032;-78
2021/05/04 00:22:35;;;;;;;6.53;3.60;;;;;;;6.38;56.66;95913.03;5066317;28;20524;-79
2021/05/04 00:25:00;;;;;;;7.83;3.80;;;;;;;6.35;56.51;95902.84;5051356;28;20087;-78
2021/05/04 00:27:26;;;;;;;8.43;3.97;;;;;;;6.30;57.02;95910.28;5050116;28;20486;-78
2021/05/04 00:29:51;;;;;;;7.87;4.00;;;;;;;6.27;57.18;95904.50;5049338;28;20037;-78
2021/05/04 00:32:17;;;;;;;8.07;4.00;;;;;;;6.27;57.29;95904.50;5060257;28;20106;-78
2021/05/04 00:34:43;;;;;;;6.77;3.87;;;;;;;6.23;57.48;95896.13;5058781;28;20036;-78
2021/05/04 00:37:09;;;;;;;8.00;4.00;;;;;;;6.23;57.71;95898.75;5063557;28;20028;-79
2021/05/04 00:39:36;;;;;;;7.77;4.13;;;;;;;6.16;57.57;95905.50;5055684;28;20021;-78
2021/05/04 00:42:03;;;;;;;8.53;4.57;;;;;;;6.17;57.71;95895.88;5069412;28;20402;-78
2021/05/04 00:44:29;;;;;;;11.03;4.90;;;;;;;6.22;57.77;95897.13;5049684;28;20025;-79
2021/05/04 00:46:55;;;;;;;7.13;4.20;;;;;;;6.28;57.61;95895.75;5053279;28;20040;-79
2021/05/04 00:49:22;;;;;;;9.90;4.80;;;;;;;6.29;57.32;95887.75;5064023;28;20020;-80
2021/05/04 00:51:50;;;;;;;9.23;4.63;;;;;;;6.40;57.55;95878.09;5067778;28;20556;-78
2021/05/04 00:54:17;;;;;;;9.63;4.53;;;;;;;6.43;57.12;95881.25;5076601;28;20500;-78
2021/05/04 00:56:44;;;;;;;8.90;4.60;;;;;;;6.41;57.28;95874.53;5066695;28;20045;-78
2021/05/04 00:59:11;;;;;;;8.27;4.63;;;;;;;6.44;57.80;95869.00;5061263;28;20021;-77
2021/05/04 01:01:37;;;;;;;8.73;4.80;;;;;;;6.51;57.29;95872.72;5054555;28;20044;-78
2021/05/04 01:04:06;;;;;;;7.93;4.67;;;;;;;6.48;57.38;95863.38;5058377;28;20386;-78
2021/05/04 01:06:32;;;;;;;9.37;5.30;;;;;;;6.46;57.53;95854.03;5068781;28;20028;-78
2021/05/04 01:08:58;;;;;;;9.43;5.23;;;;;;;6.42;57.95;95850.06;5070289;28;20497;-79
2021/05/04 01:11:24;;;;;;;10.27;5.10;;;;;;;6.37;58.29;95851.31;5066249;28;20045;-78
2021/05/04 01:13:56;;;;;;;9.00;4.87;;;;;;;6.37;58.71;95843.47;5065467;28;20025;-78
2021/05/04 01:16:22;;;;;;;10.63;5.17;;;;;;;6.35;58.47;95842.78;5066571;28;20467;-80
2021/05/04 01:18:48;;;;;;;9.93;5.17;;;;;;;6.31;58.45;95832.78;5072802;28;20032;-78
2021/05/04 01:21:13;;;;;;;8.23;4.77;;;;;;;6.34;58.55;95837.72;5066320;28;20626;-80
2021/05/04 01:23:39;;;;;;;8.97;5.00;;;;;;;6.28;59.12;95826.06;5052498;28;20105;-78
2021/05/04 01:26:05;;;;;;;9.03;4.23;;;;;;;6.24;58.78;95819.47;5048770;28;20044;-79
2021/05/04 01:28:31;;;;;;;9.03;4.83;;;;;;;6.22;59.11;95824.00;5056324;28;20509;-78
2021/05/04 01:30:57;;;;;;;9.83;4.87;;;;;;;6.16;59.06;95824.56;5063640;28;20036;-78
2021/05/04 01:33:23;;;;;;;10.43;5.27;;;;;;;6.17;59.25;95810.56;5067779;28;20016;-78
2021/05/04 01:35:48;;;;;;;9.30;4.50;;;;;;;6.14;59.28;95805.63;5059868;28;20144;-79
2021/05/04 01:38:15;;;;;;;7.87;4.50;;;;;;;6.17;59.87;95804.50;5055934;28;20028;-78
2021/05/04 01:40:41;;;;;;;10.07;5.07;;;;;;;6.18;59.45;95806.16;5057490;28;20029;-78
2021/05/04 01:43:07;;;;;;;10.83;5.17;;;;;;;6.16;59.73;95803.69;5055493;28;20090;-79
2021/05/04 01:45:33;;;;;;;10.60;4.77;;;;;;;6.14;59.45;95795.19;5055529;28;20043;-78
2021/05/04 01:47:58;;;;;;;9.60;4.70;;;;;;;6.14;59.38;95800.41;5060795;28;20029;-79
2021/05/04 01:50:24;;;;;;;8.23;4.47;;;;;;;6.04;60.43;95786.56;5052354;28;20028;-79
2021/05/04 01:52:50;;;;;;;9.20;4.83;;;;;;;6.06;60.80;95795.06;5057438;28;20028;-79
2021/05/04 01:55:16;;;;;;;10.53;5.63;;;;;;;6.06;59.88;95789.84;5052149;28;20122;-78
2021/05/04 01:57:41;;;;;;;10.03;5.00;;;;;;;6.07;60.55;95786.25;5059344;28;20087;-78
2021/05/04 02:00:09;;;;;;;11.93;5.93;;;;;;;6.13;60.09;95785.69;5066691;28;20025;-78
2021/05/04 02:02:35;;;;;;;8.77;5.03;;;;;;;6.14;59.88;95788.16;5060812;28;20022;-78
2021/05/04 02:05:02;;;;;;;9.07;4.83;;;;;;;6.10;60.38;95776.38;5059248;28;20120;-78
2021/05/04 02:07:28;;;;;;;9.37;4.70;;;;;;;6.12;59.74;95763.16;5046758;28;20032;-78
2021/05/04 02:09:54;;;;;;;8.87;4.67;;;;;;;6.16;59.96;95767.13;5047911;28;20131;-79
2021/05/04 02:12:20;;;;;;;9.97;4.87;;;;;;;6.16;59.91;95766.31;5058945;28;20017;-78
2021/05/04 02:14:45;;;;;;;9.03;4.83;;;;;;;6.04;60.53;95760.47;5061476;28;20223;-78
2021/05/04 02:17:11;;;;;;;8.37;4.50;;;;;;;6.03;60.62;95764.00;5074431;28;20116;-78
2021/05/04 02:19:37;;;;;;;9.20;4.73;;;;;;;6.03;60.33;95758.78;5059988;28;20128;-78
2021/05/04 02:22:04;;;;;;;9.47;5.27;;;;;;;6.06;60.24;95767.16;5052938;28;20462;-78
2021/05/04 02:24:30;;;;;;;9.03;4.47;;;;;;;6.04;60.11;95757.84;5061868;28;20039;-78
2021/05/04 02:26:56;;;;;;;9.13;4.70;;;;;;;6.06;60.25;95745.47;5046451;28;20029;-78
2021/05/04 02:29:21;;;;;;;13.53;6.20;;;;;;;5.91;61.26;95748.50;5049675;28;20060;-78
2021/05/04 02:31:47;;;;;;;9.03;4.77;;;;;;;6.04;60.82;95744.81;5060717;28;20017;-78
2021/05/04 02:34:13;;;;;;;10.67;4.97;;;;;;;6.05;60.50;95743.81;5061136;28;20036;-79
2021/05/04 02:36:39;;;;;;;10.00;5.00;;;;;;;6.09;60.49;95739.94;5056284;28;20413;-78
2021/05/04 02:39:09;;;;;;;12.37;5.20;;;;;;;6.11;60.11;95740.66;5055821;28;20037;-80
2021/05/04 02:41:35;;;;;;;9.27;4.20;;;;;;;6.11;60.33;95733.63;5062907;28;20028;-78
2021/05/04 02:44:05;;;;;;;7.87;4.90;;;;;;;6.13;60.02;95728.25;5055515;28;20120;-78
2021/05/04 02:46:32;;;;;;;7.70;3.50;;;;;;;6.25;59.31;95723.69;5059093;28;20052;-77
2021/05/04 02:49:02;;;;;;;6.40;3.40;;;;;;;6.32;59.21;95722.94;5051523;28;20025;-78
2021/05/04 02:51:28;;;;;;;6.73;3.60;;;;;;;6.33;58.75;95716.75;5053739;28;20379;-78
2021/05/04 02:53:55;;;;;;;8.17;3.83;;;;;;;6.32;58.85;95722.13;5061041;28;20032;-79
2021/05/04 02:56:21;;;;;;;7.37;3.50;;;;;;;6.29;59.27;95712.78;5060213;28;20086;-79
2021/05/04 02:58:47;;;;;;;6.73;3.13;;;;;;;6.26;59.15;95715.69;5052630;28;20028;-78
2021/05/04 03:01:13;;;;;;;6.30;3.50;;;;;;;6.27;59.70;95717.34;5051050;28;20036;-78
2021/05/04 03:03:40;;;;;;;8.07;3.40;;;;;;;6.26;59.14;95718.28;5051617;28;20051;-78
2021/05/04 03:06:06;;;;;;;7.53;3.83;;;;;;;6.22;59.56;95709.13;5039670;28;20033;-79
2021/05/04 03:08:32;;;;;;;6.40;3.70;;;;;;;6.23;59.46;95709.94;5071866;28;20021;-81
2021/05/04 03:10:58;;;;;;;7.73;4.20;;;;;;;6.19;60.36;95704.19;5051965;28;20075;-79
2021/05/04 03:13:28;;;;;;;6.80;3.70;;;;;;;6.18;60.36;95702.56;5060820;28;20066;-79
2021/05/04 03:15:54;;;;;;;8.73;3.90;;;;;;;6.14;60.29;95696.78;5061166;28;20615;-79
2021/05/04 03:18:20;;;;;;;6.40;3.60;;;;;;;6.11;60.81;95707.53;5053669;28;20049;-78
2021/05/04 03:20:49;;;;;;;7.30;3.33;;;;;;;6.11;61.15;95702.31;5060625;28;20041;-78
2021/05/04 03:23:15;;;;;;;11.87;5.03;;;;;;;6.08;60.54;95697.38;5051807;28;20588;-78
2021/05/04 03:25:42;;;;;;;7.17;3.53;;;;;;;6.07;61.15;95706.19;5059134;28;20052;-80
2021/05/04 03:28:09;;;;;;;8.43;4.00;;;;;;;6.06;61.44;95701.09;5066401;28;20081;-78
2021/05/04 03:30:35;;;;;;;7.50;3.80;;;;;;;6.07;61.28;95700.09;5074359;28;20397;-78
2021/05/04 03:33:01;;;;;;;6.97;3.60;;;;;;;6.01;61.44;95692.88;5065706;28;20050;-78
2021/05/04 03:35:27;;;;;;;9.63;4.20;;;;;;;6.01;61.18;95685.88;5066229;28;20045;-79
2021/05/04 03:37:52;;;;;;;6.40;3.60;;;;;;;6.01;61.34;95685.88;5055790;28;20064;-78
2021/05/04 03:40:18;;;;;;;7.27;3.80;;;;;;;6.12;60.45;95677.84;5058972;28;20081;-78
2021/05/04 03:42:48;;;;;;;7.70;4.13;;;;;;;6.10;60.79;95679.78;5065229;28;20036;-78
2021/05/04 03:45:14;;;;;;;6.73;3.63;;;;;;;6.17;60.18;95671.34;5048106;28;20117;-79
2021/05/04 03:47:41;;;;;;;9.53;4.03;;;;;;;6.12;60.57;95669.19;5069177;28;20505;-78
2021/05/04 03:50:10;;;;;;;6.67;3.87;;;;;;;6.13;60.58;95661.19;5071798;28;20035;-79
2021/05/04 03:52:36;;;;;;;9.03;4.70;;;;;;;6.16;60.25;95660.09;5051573;28;20025;-80
2021/05/04 03:55:03;;;;;;;7.67;3.93;;;;;;;6.19;60.30;95662.41;5050124;28;20032;-79
2021/05/04 03:57:29;;;;;;;8.37;3.63;;;;;;;6.19;60.60;95651.97;5051291;28;20040;-78
2021/05/04 03:59:54;;;;;;;5.73;3.20;;;;;;;6.17;60.87;95653.91;5067753;28;20059;-78
2021/05/04 04:02:20;;;;;;;6.67;3.57;;;;;;;6.18;60.25;95650.34;5052230;28;20047;-78
2021/05/04 04:04:46;;;;;;;11.27;4.00;;;;;;;6.20;60.47;95660.63;5067587;28;20063;-78
2021/05/04 04:07:12;;;;;;;5.93;3.33;;;;;;;6.19;60.50;95646.75;5054942;28;20036;-78
2021/05/04 04:09:37;;;;;;;7.90;4.07;;;;;;;6.11;61.22;95651.88;5062073;28;20048;-77
2021/05/04 04:12:03;;;;;;;8.60;5.40;;;;;;;6.09;61.33;95645.97;5053206;28;20020;-76
2021/05/04 04:14:29;;;;;;;7.67;5.07;;;;;;;6.19;60.82;95640.72;5070071;28;20032;-77
2021/05/04 04:16:55;;;;;;;8.33;4.30;;;;;;;6.16;60.89;95641.81;5053105;28;20398;-78
2021/05/04 04:19:21;;;;;;;6.40;3.83;;;;;;;6.19;61.20;95641.53;5063146;28;20113;-79
2021/05/04 04:21:49;;;;;;;6.60;3.90;;;;;;;6.13;61.62;95627.25;5069550;28;20036;-78
2021/05/04 04:24:15;;;;;;;7.27;3.27;;;;;;;6.19;61.31;95635.47;5074023;28;20032;-78
2021/05/04 04:26:41;;;;;;;7.43;4.33;;;;;;;6.18;61.03;95633.84;5071607;28;20020;-78
2021/05/04 04:29:06;;;;;;;7.83;3.50;;;;;;;6.18;61.47;95626.03;5056278;28;20592;-78
2021/05/04 04:31:32;;;;;;;8.20;3.67;;;;;;;6.18;60.98;95621.63;5050697;28;20016;-79
2021/05/04 04:33:58;;;;;;;7.60;3.40;;;;;;;6.25;61.09;95625.28;5058277;28;20041;-78
2021/05/04 04:36:23;;;;;;;7.47;3.73;;;;;;;6.40;60.11;95622.16;5049746;28;20128;-78
2021/05/04 04:38:49;;;;;;;6.60;3.17;;;;;;;6.41;60.04;95619.41;5065863;28;20036;-77
2021/05/04 04:41:16;;;;;;;6.73;2.97;;;;;;;6.47;59.93;95613.59;5059863;28;20037;-78
2021/05/04 04:43:41;;;;;;;7.33;3.47;;;;;;;6.57;59.39;95613.50;5053007;28;20047;-77
2021/05/04 04:46:07;;;;;;;7.10;3.53;;;;;;;6.56;59.66;95617.91;5061309;28;20028;-77
2021/05/04 04:48:33;;;;;;;5.10;3.00;;;;;;;6.62;59.57;95603.44;5065041;28;20123;-78
2021/05/04 04:50:59;;;;;;;5.50;2.57;;;;;;;6.69;59.38;95606.25;5056917;28;20386;-77
2021/05/04 04:53:25;;;;;;;4.93;2.67;;;;;;;6.71;59.29;95599.91;5064719;28;20033;-77
2021/05/04 04:55:51;;;;;;;4.70;2.87;;;;;;;6.74;59.13;95599.63;5054640;28;20021;-77
2021/05/04 04:58:17;;;;;;;6.87;2.80;;;;;;;6.76;58.94;95602.88;5065118;28;20032;-78
2021/05/04 05:00:42;;;;;;;6.70;3.30;;;;;;;6.82;59.69;95593.63;5071865;28;20059;-77
2021/05/04 05:03:09;;;;;;;5.53;2.70;;;;;;;6.81;59.36;95595.41;5061050;28;20036;-78
2021/05/04 05:05:35;;;;;;;8.43;2.80;;;;;;;6.77;59.60;95588.03;5068875;28;20035;-78
2021/05/04 05:08:01;;;;;;;6.60;3.00;;;;;;;6.83;59.66;95587.41;5065859;28;20498;-78
2021/05/04 05:10:27;;;;;;;6.33;2.80;;;;;;;6.81;59.58;95590.19;5053067;28;20032;-77
2021/05/04 05:12:52;;;;;;;5.83;3.00;;;;;;;6.83;59.87;95582.19;5060508;28;20041;-78
2021/05/04 05:15:18;;;;;;;9.00;2.33;;;;;;;6.95;59.14;95580.97;5066504;28;20036;-79
2021/05/04 05:17:44;;;;;;;8.20;3.10;;;;;;;6.92;60.04;95585.69;5069940;28;20029;-79
2021/05/04 05:20:10;;;;;;;6.47;2.53;;;;;;;7.01;59.88;95576.94;5051035;28;20017;-78
2021/05/04 05:22:36;;;;;;;12.17;2.80;;;;;;;7.02;60.01;95579.41;5057424;28;20763;-78
2021/05/04 05:25:02;;;;;;;4.40;2.20;;;;;;;7.06;60.17;95575.50;5059154;28;20119;-78
2021/05/04 05:27:32;;;;;;;5.17;2.70;;;;;;;7.04;60.03;95567.00;5065840;28;20057;-78
2021/05/04 05:29:58;;;;;;;8.70;2.90;;;;;;;7.13;60.27;95569.66;5068468;28;20095;-80
2021/05/04 05:32:24;;;;;;;4.23;2.33;;;;;;;7.07;60.35;95558.00;5065880;28;20025;-78
2021/05/04 05:34:50;;;;;;;7.17;2.70;;;;;;;7.15;59.94;95552.03;5060335;28;20036;-79
2021/05/04 05:37:15;;;;;;;5.30;2.40;;;;;;;7.20;59.51;95557.59;5074255;28;20035;-79
2021/05/04 05:39:43;;;;;;;4.47;2.70;;;;;;;7.24;59.96;95546.69;5058152;28;20033;-79
2021/05/04 05:42:15;;;;;;;5.13;2.63;;;;;;;7.22;60.27;95540.78;5067762;28;20020;-80
2021/05/04 05:44:42;;;;;;;7.40;2.73;;;;;;;7.33;60.22;95537.06;5056997;28;20033;-81
2021/05/04 05:47:09;;;;;;;6.00;3.00;;;;;;;7.34;60.10;95538.69;5064716;28;20026;-82
2021/05/04 05:49:35;;;;;;;4.27;2.30;;;;;;;7.51;58.94;95539.59;5079334;28;20036;-79
2021/05/04 05:52:01;;;;;;;5.90;2.23;;;;;;;7.56;59.30;95532.91;5061762;28;20128;-79
2021/05/04 05:54:27;;;;;;;4.17;2.17;;;;;;;7.67;58.94;95529.19;5038106;28;20033;-80
2021/05/04 05:56:53;;;;;;;8.80;2.63;;;;;;;7.73;58.16;95506.81;5054943;28;20116;-77
2021/05/04 05:59:19;;;;;;;7.33;3.13;;;;;;;7.82;58.23;95510.28;5071196;28;20031;-78
2021/05/04 06:01:44;;;;;;;5.67;2.90;;;;;;;7.92;57.81;95517.00;5068749;28;20070;-79
2021/05/04 06:04:10;;;;;;;6.27;3.17;;;;;;;8.01;57.43;95520.44;5073145;28;20032;-79
2021/05/04 06:06:36;;;;;;;4.97;2.70;;;;;;;8.02;56.95;95522.09;5065073;28;20025;-79
2021/05/04 06:09:02;;;;;;;6.87;3.00;;;;;;;8.06;57.20;95520.81;5055472;28;20723;-78
2021/05/04 06:11:28;;;;;;;6.50;2.70;;;;;;;8.07;57.74;95517.19;5046885;28;20021;-79
2021/05/04 06:13:53;;;;;;;5.90;2.97;;;;;;;8.13;57.56;95524.41;5057999;28;20082;-79
2021/05/04 06:16:19;;;;;;;7.53;3.40;;;;;;;8.11;58.00;95515.06;5066000;28;20063;-78
2021/05/04 06:18:45;;;;;;;9.80;3.57;;;;;;;8.27;57.67;95515.91;5059980;28;20727;-78
2021/05/04 06:21:10;;;;;;;8.40;3.13;;;;;;;8.28;57.40;95508.88;5064329;28;20025;-78
2021/05/04 06:23:36;;;;;;;6.20;3.30;;;;;;;8.30;57.33;95508.72;5059557;28;20091;-78
2021/05/04 06:26:02;;;;;;;5.17;2.80;;;;;;;8.46;56.94;95503.50;5061165;28;20025;-78
2021/05/04 06:28:27;;;;;;;7.70;3.03;;;;;;;8.49;56.77;95505.81;5074144;28;20086;-77
2021/05/04 06:31:10;;;;;;;6.73;2.90;;;;;;;8.69;56.62;95501.88;5055247;28;20008;-79
2021/05/04 06:45:43;;;;;;;4.73;2.80;;;;;;;9.31;55.58;95487.28;5020427;28;20181;-79
2021/05/04 06:49:27;;;;;;;6.00;2.90;;;;;;;9.37;55.40;95481.38;5031541;28;20076;-80
2021/05/04 07:12:58;;;;;;;4.57;2.00;;;;;;;10.86;48.95;95454.75;4799325;30;20112;-80
2021/05/04 07:16:22;;;;;;;5.20;2.23;;;;;;;11.17;47.12;95449.31;4844605;29;20079;-80
2021/05/04 07:19:38;;;;;;;5.27;1.97;;;;;;;11.25;46.32;95453.66;4917063;29;20059;-81
2021/05/04 07:22:55;;;;;;;5.63;2.63;;;;;;;11.48;45.88;95457.00;4939553;29;20090;-80
2021/05/04 07:26:37;;;;;;;3.10;1.70;;;;;;;11.52;46.41;95442.47;4997032;28;20077;-80
2021/05/04 07:29:28;;;;;;;3.03;1.40;;;;;;;11.62;45.65;95439.53;4990998;28;20093;-81
2021/05/04 07:32:20;;;;;;;4.57;1.90;;;;;;;11.76;45.50;95436.06;4974204;28;20039;-81
2021/05/04 07:36:04;;;;;;;3.70;1.47;;;;;;;11.95;45.44;95433.84;4977518;28;20093;-81
2021/05/04 07:39:49;;;;;;;6.77;1.97;;;;;;;11.95;44.67;95426.78;5030985;28;20583;-82
2021/05/04 07:47:42;;;;;;;7.77;1.93;;;;;;;12.26;44.77;95429.09;5041507;28;20098;-81
2021/05/04 07:51:48;;;;;;;4.90;1.60;;;;;;;12.33;44.49;95423.88;4983738;28;20089;-81
2021/05/04 07:55:48;;;;;;;4.50;1.97;;;;;;;12.60;43.92;95419.63;4971434;28;20065;-80
2021/05/04 08:03:14;;;;;;;3.90;1.57;;;;;;;13.13;43.07;95417.31;4972835;28;20052;-83
2021/05/04 08:07:04;;;;;;;3.33;1.70;;;;;;;13.30;43.44;95425.78;4873651;29;20053;-82
2021/05/04 08:29:58;;;;;;;4.47;2.20;;;;;;;14.09;39.28;95367.06;4801802;29;20072;-79
2021/05/04 08:39:58;;;;;;;3.50;1.70;;;;;;;14.68;39.66;95365.44;4854870;29;20049;-81
2021/05/04 08:43:03;;;;;;;3.40;1.10;;;;;;;14.31;39.06;95359.72;4878394;29;20047;-81
2021/05/04 08:45:34;;;;;;;3.13;1.70;;;;;;;13.96;38.96;95356.47;4930367;29;20476;-83
2021/05/04 08:48:05;;;;;;;1.80;1.17;;;;;;;14.02;39.55;95376.00;5020791;28;20059;-83
2021/05/04 08:50:35;;;;;;;4.03;1.30;;;;;;;14.07;39.68;95352.41;5062745;28;20538;-83
2021/05/04 08:53:03;;;;;;;6.17;1.87;;;;;;;13.94;39.41;95352.41;5069760;28;20029;-84
2021/05/04 08:55:29;;;;;;;4.33;1.60;;;;;;;13.90;39.72;95342.22;5061916;28;20040;-83
2021/05/04 08:57:56;;;;;;;2.60;1.60;;;;;;;14.11;40.81;95358.91;5067024;28;20029;-83
2021/05/04 09:00:23;;;;;;;5.30;1.67;;;;;;;13.97;40.00;95350.16;5081533;28;20028;-84
2021/05/04 09:03:05;;;;;;;6.07;1.43;;;;;;;14.24;40.15;95356.28;5070149;28;20032;-81
2021/05/04 09:05:49;;;;;;;4.33;1.23;;;;;;;14.57;39.26;95348.34;5070811;28;20153;-81
2021/05/04 09:08:40;;;;;;;3.27;1.30;;;;;;;14.79;38.31;95338.34;5081474;28;20076;-81
2021/05/04 09:16:56;;;;;;;3.03;1.27;;;;;;;14.89;38.08;95331.78;5044257;28;20040;-83
2021/05/04 09:21:54;;;;;;;4.38;1.60;;;;;;;14.87;39.10;95329.38;5084042;28;20028;-83
2021/05/04 09:24:39;;;;;;;3.50;1.43;;;;;;;15.21;37.80;95327.41;5084215;28;20033;-82
2021/05/04 09:27:14;;;;;;;3.10;1.07;;;;;;;16.22;36.76;95330.09;5065904;28;20037;-82
2021/05/04 09:29:55;;;;;;;3.53;1.60;;;;;;;16.42;36.80;95314.00;5075408;28;20630;-82
2021/05/04 09:32:27;;;;;;;5.77;1.50;;;;;;;16.47;36.18;95318.69;5067264;28;20032;-83
2021/05/04 09:34:55;;;;;;;3.63;1.60;;;;;;;16.64;35.82;95306.47;5053222;28;20069;-83
2021/05/04 09:37:37;;;;;;;3.57;1.53;;;;;;;16.01;36.51;95306.59;5075720;28;20103;-81
2021/05/04 09:40:21;;;;;;;3.37;1.33;;;;;;;17.20;34.26;95300.16;5061369;28;20059;-83
2021/05/04 09:42:47;;;;;;;2.73;1.40;;;;;;;17.71;35.46;95315.84;5055709;28;20037;-82
2021/05/04 09:45:23;;;;;;;1.70;1.15;;;;;;;17.97;33.87;95312.00;5061905;28;20026;-82
2021/05/04 09:48:09;;;;;;;2.87;1.30;;;;;;;17.81;34.39;95316.16;5064571;28;20037;-83
2021/05/04 09:50:45;;;;;;;3.83;1.37;;;;;;;16.85;34.18;95309.75;5069616;28;20052;-82
2021/05/04 09:53:11;;;;;;;3.00;1.50;;;;;;;16.72;34.18;95308.00;5067984;28;20056;-82
2021/05/04 09:55:53;;;;;;;4.73;2.30;;;;;;;16.24;33.99;95304.16;5068360;28;20539;-83
2021/05/04 09:58:50;;;;;;;4.60;1.50;;;;;;;16.13;33.79;95310.19;5067043;28;20024;-83
2021/05/04 10:01:17;;;;;;;3.80;1.40;;;;;;;15.89;34.68;95305.66;5060017;28;20178;-81
2021/05/04 10:03:46;;;;;;;2.93;1.00;;;;;;;15.81;34.67;95317.34;5067302;28;20020;-82
2021/05/04 10:06:13;;;;;;;2.97;1.17;;;;;;;16.03;35.15;95308.03;5055934;28;20036;-82
2021/05/04 10:08:40;;;;;;;2.43;1.10;;;;;;;16.21;35.07;95304.59;5063809;28;20025;-82
2021/05/04 10:11:11;;;;;;;4.97;1.40;;;;;;;16.14;34.11;95295.88;5068234;28;20033;-83
2021/05/04 10:13:40;;;;;;;5.10;1.93;;;;;;;16.27;33.66;95300.28;5062367;28;20037;-82
2021/05/04 10:16:07;;;;;;;7.67;1.80;;;;;;;16.63;33.12;95302.19;5063453;28;20075;-81
2021/05/04 10:18:34;;;;;;;5.47;1.30;;;;;;;16.80;34.50;95304.28;5074659;28;20032;-82
2021/05/04 10:21:03;;;;;;;1.87;1.10;;;;;;;16.33;35.06;95277.34;5077048;28;20024;-82
2021/05/04 10:23:30;;;;;;;2.10;1.20;;;;;;;16.91;34.26;95279.66;5081163;28;20025;-82
2021/05/04 10:26:14;;;;;;;7.93;1.50;;;;;;;17.10;35.08;95293.72;5061240;28;20064;-82
2021/05/04 10:28:43;;;;;;;4.53;1.50;;;;;;;17.46;33.12;95284.06;5066338;28;20044;-83
2021/05/04 10:31:12;;;;;;;5.07;1.53;;;;;;;18.26;31.96;95268.56;5064719;28;20040;-81
2021/05/04 10:33:40;;;;;;;2.10;1.13;;;;;;;18.09;32.05;95276.41;5064003;28;20040;-82
2021/05/04 10:36:34;;;;;;;4.35;1.70;;;;;;;18.40;31.38;95298.41;5084046;28;20016;-80
2021/05/04 10:39:02;;;;;;;3.67;1.38;;;;;;;19.16;31.15;95285.19;5071377;28;20100;-81
2021/05/04 10:41:28;;;;;;;3.45;1.40;;;;;;;18.68;30.25;95283.59;5067770;28;20044;-81
2021/05/04 10:44:05;;;;;;;3.33;1.20;;;;;;;18.89;30.67;95279.56;5074350;28;20062;-80
2021/05/04 10:46:41;;;;;;;5.57;1.52;;;;;;;19.04;30.57;95278.00;5075491;28;20715;-81
2021/05/04 10:49:17;;;;;;;6.68;1.55;;;;;;;19.21;30.76;95282.59;5078700;28;20079;-81
2021/05/04 10:51:53;;;;;;;2.28;1.30;;;;;;;18.67;30.46;95276.66;5078235;28;20029;-81
2021/05/04 10:54:21;;;;;;;3.28;1.50;;;;;;;19.21;30.13;95277.25;5056747;28;20033;-81
2021/05/04 10:56:58;;;;;;;3.25;1.35;;;;;;;19.21;30.30;95285.25;5067754;28;20040;-80
2021/05/04 10:59:24;;;;;;;5.05;1.52;;;;;;;18.29;30.92;95280.59;5081396;28;20021;-81
2021/05/04 11:02:15;;;;;;;2.47;1.27;;;;;;;19.16;30.97;95280.66;5070122;28;20036;-80
2021/05/04 11:04:46;;;;;;;2.58;1.33;;;;;;;18.56;30.86;95273.75;5075746;28;20215;-81
2021/05/04 11:07:12;;;;;;;5.85;1.42;;;;;;;19.61;31.04;95276.41;5066741;28;20032;-80
2021/05/04 11:09:40;;;;;;;2.90;1.25;;;;;;;18.54;31.09;95273.22;5072685;28;20032;-80
2021/05/04 11:12:08;;;;;;;5.88;1.80;;;;;;;18.45;31.39;95255.94;5074926;28;20036;-81
2021/05/04 11:14:38;;;;;;;3.15;1.42;;;;;;;18.68;31.53;95281.75;5063996;28;20116;-81
2021/05/04 11:17:10;;;;;;;6.68;1.52;;;;;;;17.92;31.71;95274.66;5064115;28;20060;-81
2021/05/04 11:19:42;;;;;;;3.30;1.55;;;;;;;17.57;32.17;95259.38;5064322;28;20092;-79
2021/05/04 11:22:15;;;;;;;3.47;1.10;;;;;;;17.81;32.39;95260.31;5066670;28;20082;-80
2021/05/04 11:24:43;;;;;;;;;;;;;;;17.95;32.97;95269.69;5069414;28;20502;-81
2021/05/04 11:27:08;;;;;;;6.57;1.33;;;;;;;17.06;33.65;95271.28;5068521;28;20188;-82
2021/05/04 11:29:34;;;;;;;7.80;1.60;;;;;;;16.83;34.05;95277.28;5086817;28;20073;-81
2021/05/04 11:32:11;;;;;;;4.72;1.20;;;;;;;16.76;34.90;95284.50;5071085;28;20089;-79
2021/05/04 11:34:50;;;;;;;3.38;1.40;;;;;;;16.86;34.40;95290.13;5063276;28;20037;-80
2021/05/04 11:37:19;;;;;;;2.87;1.30;;;;;;;16.85;34.69;95284.00;5079862;28;20115;-80
2021/05/04 11:39:59;;;;;;;3.13;1.08;;;;;;;17.31;34.61;95281.84;5059167;28;20030;-81
2021/05/04 11:42:25;;;;;;;4.22;1.50;;;;;;;17.20;34.15;95275.41;5075371;28;20069;-82
2021/05/04 11:44:52;;;;;;;4.40;1.42;;;;;;;17.31;33.84;95273.88;5050736;28;20076;-82
2021/05/04 11:47:27;;;;;;;5.95;2.40;;;;;;;17.40;34.72;95283.97;5064497;28;20029;-81
2021/05/04 11:50:07;;;;;;;5.72;2.88;;;;;;;17.46;34.95;95271.59;5071563;28;20487;-82
2021/05/04 11:52:35;;;;;;;2.75;1.33;;;;;;;17.13;34.79;95272.03;5064792;28;20045;-82
2021/05/04 11:55:11;;;;;;;4.50;1.50;;;;;;;16.41;35.45;95277.09;5063659;28;20895;-81
2021/05/04 11:57:38;;;;;;;5.60;1.30;;;;;;;16.14;36.26;95277.31;5066215;28;20044;-81
2021/05/04 12:00:09;;;;;;;4.37;1.30;;;;;;;16.20;35.88;95276.47;5073701;28;20466;-81
2021/05/04 12:02:39;;;;;;;2.73;1.50;;;;;;;16.66;36.05;95275.19;5070044;28;20044;-81
2021/05/04 12:05:06;;;;;;;2.60;1.30;;;;;;;16.59;34.50;95260.38;5062595;28;20051;-79
2021/05/04 12:07:37;;;;;;;3.70;1.40;;;;;;;16.40;35.07;95267.50;5062894;28;20032;-80
2021/05/04 12:10:18;;;;;;;5.07;2.07;;;;;;;16.32;36.04;95259.81;5065044;28;20033;-82
2021/05/04 12:13:07;;;;;;;2.93;1.23;;;;;;;16.03;35.98;95267.44;5061006;28;20021;-81
2021/05/04 12:15:43;;;;;;;5.07;1.80;;;;;;;16.04;35.53;95263.75;5064447;28;20045;-82
2021/05/04 12:18:13;;;;;;;7.00;1.93;;;;;;;15.92;35.37;95282.19;5063870;28;20036;-81
2021/05/04 12:20:46;;;;;;;3.80;1.77;;;;;;;15.71;35.93;95275.41;5072097;28;20480;-81
2021/05/04 12:23:24;;;;;;;5.63;1.27;;;;;;;15.58;36.21;95267.50;5077747;28;20045;-80
2021/05/04 12:25:53;;;;;;;2.50;1.40;;;;;;;15.53;36.71;95273.47;5075546;28;20676;-80
2021/05/04 12:28:25;;;;;;;3.33;1.43;;;;;;;15.43;37.39;95278.41;5046352;28;20037;-81
2021/05/04 12:30:59;;;;;;;6.70;1.27;;;;;;;15.46;36.73;95271.84;5066797;28;20037;-79
2021/05/04 12:33:24;;;;;;;;;;;;;;;15.48;37.94;95275.13;5071401;28;20028;-79
2021/05/04 12:35:56;;;;;;;2.93;1.23;;;;;;;15.09;37.58;95284.91;5063692;28;19927;-79
2021/05/04 12:38:33;;;;;;;6.47;1.80;;;;;;;15.29;37.25;95277.69;5067450;28;20440;-79
2021/05/04 12:41:16;;;;;;;8.37;4.07;;;;;;;15.33;37.13;95284.16;5057972;28;20044;-80
2021/05/04 12:44:25;;;;;;;8.18;3.30;;;;;;;15.29;37.62;95287.44;5078476;28;20048;-79
2021/05/04 12:46:56;;;;;;;6.20;3.37;;;;;;;15.01;38.22;95285.94;5003703;28;20062;-79
2021/05/04 12:49:39;;;;;;;8.07;3.00;;;;;;;14.85;38.35;95279.31;5041880;28;20064;-79
2021/05/04 12:52:09;;;;;;;15.93;8.27;;;;;;;14.78;38.21;95280.31;5024924;28;20037;-79
2021/05/04 12:54:37;;;;;;;4.53;1.67;;;;;;;14.80;39.03;95284.41;5056773;28;20105;-81
2021/05/04 12:57:20;;;;;;;3.70;1.40;;;;;;;14.72;38.83;95274.03;5062879;28;20036;-80
2021/05/04 12:59:46;;;;;;;2.53;1.23;;;;;;;14.70;39.20;95294.59;5061501;28;20021;-81
2021/05/04 13:02:26;;;;;;;2.43;1.47;;;;;;;14.74;39.46;95279.13;5071813;28;20974;-81
2021/05/04 13:13:12;;;;;;;;;;;;;;;14.70;39.21;95262.84;5075358;28;20037;-81
2021/05/04 13:37:15;;;;;;;3.27;1.20;;;;;;;14.63;39.19;95262.06;5064002;28;20067;-80
2021/05/04 13:47:38;;;;;;;3.33;1.40;;;;;;;14.03;44.93;95275.34;5072896;28;20040;-79
2021/05/04 13:50:07;;;;;;;3.27;1.67;;;;;;;13.81;46.15;95276.56;5049184;28;20055;-79
2021/05/04 13:52:33;;;;;;;8.80;1.83;;;;;;;13.92;46.25;95281.25;5066376;28;20090;-79
2021/05/04 13:54:58;;;;;;;3.07;1.30;;;;;;;13.82;46.70;95276.38;5070536;28;20029;-80
2021/05/04 13:57:26;;;;;;;2.30;1.37;;;;;;;13.77;46.70;95270.84;5080791;28;20028;-79